createdAt,value
2022-09-13T00:01:34.024Z,752.67
2022-09-13T00:04:01.251Z,791.20
2022-09-13T00:06:28.322Z,770.33
2022-09-13T00:08:55.484Z,753.13
2022-09-13T00:11:25.466Z,770.45
2022-09-13T00:13:53.124Z,794.75
2022-09-13T00:16:22.318Z,798.30
2022-09-13T00:18:49.771Z,761.55
2022-09-13T00:21:18.664Z,790.00
2022-09-13T00:23:47.511Z,570.50
2022-09-13T00:26:16.139Z,439.80
2022-09-13T00:28:45.426Z,417.80
2022-09-13T00:31:13.036Z,430.42
2022-09-13T00:33:40.426Z,444.92
2022-09-13T00:36:08.551Z,528.20
2022-09-13T00:38:36.563Z,754.33
2022-09-13T00:41:07.466Z,762.40
2022-09-13T00:44:01.903Z,766.88
2022-09-13T00:46:41.453Z,744.50
2022-09-13T00:49:11.345Z,768.00
2022-09-13T00:51:39.057Z,764.50
2022-09-13T00:54:06.179Z,794.10
2022-09-13T00:56:44.324Z,747.63
2022-09-13T00:59:15.012Z,782.40
2022-09-13T01:01:53.430Z,738.43
2022-09-13T01:04:22.329Z,776.70
2022-09-13T01:06:51.955Z,778.67
2022-09-13T01:09:19.102Z,771.67
2022-09-13T01:11:55.538Z,774.33
2022-09-13T01:14:24.673Z,766.25
2022-09-13T01:16:54.298Z,804.25
2022-09-13T01:19:21.644Z,735.28
2022-09-13T01:21:48.793Z,763.60
2022-09-13T01:24:31.399Z,749.28
2022-09-13T01:27:13.882Z,736.25
2022-09-13T01:29:59.291Z,762.75
2022-09-13T01:32:36.041Z,767.30
2022-09-13T01:35:11.042Z,752.53
2022-09-13T01:37:56.189Z,757.72
2022-09-13T01:40:38.679Z,738.35
2022-09-13T01:43:43.533Z,737.23
2022-09-13T01:46:15.742Z,745.25
2022-09-13T01:49:14.927Z,717.00
2022-09-13T01:51:49.351Z,712.63
2022-09-13T01:55:00.466Z,696.33
2022-09-13T01:57:44.062Z,713.88
2022-09-13T02:00:16.666Z,727.28
2022-09-13T02:02:47.002Z,750.55
2022-09-13T02:05:17.238Z,732.92
2022-09-13T02:07:47.267Z,751.33
2022-09-13T02:10:21.562Z,742.55
2022-09-13T02:12:50.951Z,746.27
2022-09-13T02:15:22.835Z,734.92
2022-09-13T02:17:56.453Z,716.03
2022-09-13T02:20:33.234Z,689.63
2022-09-13T02:23:04.967Z,753.58
2022-09-13T02:25:34.645Z,678.92
2022-09-13T02:28:07.292Z,696.25
2022-09-13T02:30:36.578Z,677.53
2022-09-13T02:33:29.034Z,713.50
2022-09-13T02:36:02.415Z,690.27
2022-09-13T02:38:38.045Z,705.45
2022-09-13T02:41:16.581Z,717.05
2022-09-13T02:43:46.682Z,707.97
2022-09-13T02:46:38.351Z,732.17
2022-09-13T02:49:25.191Z,729.70
2022-09-13T02:52:18.447Z,751.90
2022-09-13T02:55:09.075Z,765.07
2022-09-13T02:57:48.875Z,743.17
2022-09-13T03:00:16.106Z,750.53
2022-09-13T03:02:44.383Z,851.30
2022-09-13T03:05:11.569Z,831.22
2022-09-13T03:07:38.734Z,826.47
2022-09-13T03:10:11.397Z,859.38
2022-09-13T03:12:54.119Z,942.40
2022-09-13T03:15:45.529Z,873.85
2022-09-13T03:18:32.606Z,999.90
2022-09-13T03:21:19.454Z,912.93
2022-09-13T03:23:46.711Z,947.08
2022-09-13T03:26:37.673Z,995.17
2022-09-13T03:29:04.440Z,757.00
2022-09-13T03:31:31.620Z,763.42
2022-09-13T03:34:10.740Z,821.00
2022-09-13T03:36:55.644Z,835.83
2022-09-13T03:39:44.045Z,836.03
2022-09-13T03:42:31.557Z,831.95
2022-09-13T03:44:59.018Z,825.40
2022-09-13T03:47:28.370Z,746.25
2022-09-13T03:49:56.618Z,781.85
2022-09-13T03:52:24.382Z,773.25
2022-09-13T03:54:52.982Z,744.53
2022-09-13T03:57:22.166Z,884.92
2022-09-13T03:59:54.323Z,783.97
2022-09-13T04:02:23.174Z,731.30
2022-09-13T04:04:50.350Z,678.58
2022-09-13T04:07:21.679Z,672.47
2022-09-13T04:09:48.891Z,636.20
2022-09-13T04:12:17.234Z,660.53
2022-09-13T04:14:44.473Z,669.70
2022-09-13T04:17:12.113Z,490.67
2022-09-13T04:19:39.397Z,481.48
2022-09-13T04:22:07.033Z,482.52
2022-09-13T04:24:34.251Z,468.58
2022-09-13T04:27:01.916Z,460.53
2022-09-13T04:29:29.420Z,472.10
2022-09-13T04:31:56.778Z,470.03
2022-09-13T04:34:23.886Z,451.52
2022-09-13T04:36:52.459Z,483.73
2022-09-13T04:39:20.467Z,471.67
2022-09-13T04:41:49.629Z,466.42
2022-09-13T04:44:17.717Z,452.80
2022-09-13T04:46:50.851Z,478.00
2022-09-13T04:49:20.038Z,481.05
2022-09-13T04:51:47.426Z,459.08
2022-09-13T04:54:16.239Z,463.48
2022-09-13T04:56:44.339Z,471.80
2022-09-13T04:59:12.652Z,476.30
2022-09-13T05:01:39.854Z,480.60
2022-09-13T05:04:08.018Z,604.83
2022-09-13T05:06:35.356Z,646.03
2022-09-13T05:09:04.251Z,621.73
2022-09-13T05:11:31.540Z,636.55
2022-09-13T05:13:59.852Z,634.83
2022-09-13T05:16:27.982Z,481.33
2022-09-13T05:18:55.769Z,613.80
2022-09-13T05:21:23.957Z,597.85
2022-09-13T05:23:54.871Z,660.27
2022-09-13T05:26:23.074Z,663.92
2022-09-13T05:28:50.657Z,675.53
2022-09-13T05:31:20.517Z,680.73
2022-09-13T05:33:52.690Z,707.40
2022-09-13T05:36:20.370Z,740.88
2022-09-13T05:38:47.699Z,722.30
2022-09-13T05:41:14.872Z,750.40
2022-09-13T05:43:42.100Z,767.20
2022-09-13T05:46:12.796Z,773.97
2022-09-13T05:48:40.199Z,795.60
2022-09-13T05:51:12.759Z,768.03
2022-09-13T05:53:40.926Z,790.65
2022-09-13T05:56:11.347Z,770.05
2022-09-13T05:58:42.795Z,785.30
2022-09-13T06:01:11.095Z,760.13
2022-09-13T06:03:38.507Z,802.78
2022-09-13T06:06:06.178Z,821.08
2022-09-13T06:08:33.757Z,894.78
2022-09-13T06:11:07.738Z,880.47
2022-09-13T06:13:35.442Z,901.25
2022-09-13T06:16:04.711Z,883.50
2022-09-13T06:18:32.296Z,928.57
2022-09-13T06:21:04.739Z,982.17
2022-09-13T06:23:32.437Z,999.90
2022-09-13T06:26:03.579Z,999.90
2022-09-13T06:28:34.309Z,977.28
2022-09-13T06:31:08.608Z,981.60
2022-09-13T06:33:36.543Z,999.72
2022-09-13T06:36:05.328Z,859.13
2022-09-13T06:38:32.615Z,913.73
2022-09-13T06:41:04.523Z,929.15
2022-09-13T06:43:32.242Z,969.00
2022-09-13T06:46:02.580Z,877.17
2022-09-13T06:48:33.322Z,838.20
2022-09-13T06:51:02.018Z,803.25
2022-09-13T06:53:29.403Z,841.05
2022-09-13T06:56:08.662Z,900.88
2022-09-13T06:58:37.786Z,851.97
2022-09-13T07:01:10.502Z,949.83
2022-09-13T07:03:39.128Z,939.05
2022-09-13T07:06:21.994Z,960.33
2022-09-13T07:08:50.960Z,847.00
2022-09-13T07:11:19.087Z,834.65
2022-09-13T07:13:53.299Z,721.03
2022-09-13T07:16:21.509Z,713.95
2022-09-13T07:18:53.255Z,701.90
2022-09-13T07:21:20.580Z,759.27
2022-09-13T07:23:47.711Z,707.45
2022-09-13T07:26:14.853Z,622.88
2022-09-13T07:28:44.390Z,612.03
2022-09-13T07:31:14.949Z,715.65
2022-09-13T07:33:43.241Z,694.77
2022-09-13T07:36:11.704Z,724.38
2022-09-13T07:38:41.129Z,707.50
2022-09-13T07:41:16.599Z,716.63
2022-09-13T07:43:43.988Z,735.40
2022-09-13T07:46:13.407Z,731.60
2022-09-13T07:48:43.237Z,753.53
2022-09-13T07:51:15.636Z,727.53
2022-09-13T07:53:44.348Z,738.13
2022-09-13T07:56:15.992Z,747.20
2022-09-13T07:58:44.267Z,724.00
2022-09-13T08:01:20.684Z,736.65
2022-09-13T08:03:53.095Z,731.72
2022-09-13T08:06:20.488Z,762.83
2022-09-13T08:08:47.571Z,784.70
2022-09-13T08:11:18.342Z,648.15
2022-09-13T08:13:49.033Z,700.73
2022-09-13T08:16:19.189Z,701.47
2022-09-13T08:18:50.154Z,669.58
2022-09-13T08:21:17.346Z,676.67
2022-09-13T08:23:45.131Z,639.17
2022-09-13T08:26:12.074Z,596.20
2022-09-13T08:28:40.491Z,620.78
2022-09-13T08:31:10.446Z,616.83
2022-09-13T08:33:37.757Z,623.08
2022-09-13T08:36:05.502Z,601.47
2022-09-13T08:38:32.436Z,604.42
2022-09-13T08:41:24.981Z,478.45
2022-09-13T08:44:04.572Z,483.30
2022-09-13T08:46:31.663Z,521.03
2022-09-13T08:49:01.771Z,519.60
2022-09-13T08:51:33.218Z,493.92
2022-09-13T08:54:03.168Z,508.60
2022-09-13T08:56:36.686Z,526.40
2022-09-13T08:59:04.035Z,537.03
2022-09-13T09:02:05.979Z,546.22
2022-09-13T09:04:46.316Z,552.47
2022-09-13T09:07:59.906Z,516.65
2022-09-13T09:10:37.822Z,537.95
2022-09-13T09:13:16.921Z,535.33
2022-09-13T09:15:47.921Z,532.80
2022-09-13T09:18:35.677Z,512.37
2022-09-13T09:21:06.858Z,514.50
2022-09-13T09:23:42.372Z,480.25
2022-09-13T09:26:30.656Z,473.67
2022-09-13T09:29:25.546Z,465.40
2022-09-13T09:32:16.955Z,473.08
2022-09-13T09:35:10.860Z,430.83
2022-09-13T09:37:38.743Z,324.10
2022-09-13T09:40:10.215Z,348.73
2022-09-13T09:42:44.749Z,374.35
2022-09-13T09:45:33.762Z,422.17
2022-09-13T09:48:16.790Z,454.58
2022-09-13T09:50:54.894Z,427.37
2022-09-13T09:53:36.672Z,437.23
2022-09-13T09:56:15.804Z,416.05
2022-09-13T09:58:46.090Z,424.67
2022-09-13T10:01:16.495Z,424.00
2022-09-13T10:03:50.390Z,465.17
2022-09-13T10:06:22.355Z,547.58
2022-09-13T10:09:05.653Z,548.08
2022-09-13T10:11:55.507Z,554.65
2022-09-13T10:14:30.102Z,559.40
2022-09-13T10:17:06.523Z,569.47
2022-09-13T10:19:33.817Z,556.85
2022-09-13T10:22:11.537Z,637.60
2022-09-13T10:24:39.226Z,654.67
2022-09-13T10:27:22.548Z,622.92
2022-09-13T10:29:55.318Z,641.25
2022-09-13T10:32:22.888Z,648.33
2022-09-13T10:34:50.433Z,643.00
2022-09-13T10:37:33.725Z,661.15
2022-09-13T10:40:03.912Z,657.70
2022-09-13T10:42:31.387Z,661.17
2022-09-13T10:44:58.522Z,664.03
2022-09-13T10:47:27.671Z,665.92
2022-09-13T10:49:56.882Z,654.38
2022-09-13T10:52:36.305Z,657.00
2022-09-13T10:55:18.897Z,623.55
2022-09-13T10:57:55.337Z,663.15
2022-09-13T11:00:31.003Z,518.27
2022-09-13T11:03:01.278Z,611.53
2022-09-13T11:05:43.179Z,617.70
2022-09-13T11:08:37.875Z,623.20
2022-09-13T11:11:35.742Z,629.60
2022-09-13T11:14:05.897Z,675.63
2022-09-13T11:16:33.096Z,692.55
2022-09-13T11:19:15.645Z,717.78
2022-09-13T11:21:43.141Z,689.28
2022-09-13T11:24:19.739Z,678.67
2022-09-13T11:26:46.797Z,694.63
2022-09-13T11:29:13.980Z,687.63
2022-09-13T11:32:03.980Z,731.67
2022-09-13T11:34:51.328Z,723.63
2022-09-13T11:37:44.305Z,746.80
2022-09-13T11:40:41.547Z,708.05
2022-09-13T11:43:26.963Z,689.65
2022-09-13T11:46:25.517Z,714.97
2022-09-13T11:49:28.448Z,899.63
2022-09-13T11:52:01.722Z,858.63
2022-09-13T11:54:53.806Z,899.22
2022-09-13T11:57:49.635Z,799.00
2022-09-13T12:00:41.962Z,821.17
2022-09-13T12:03:12.980Z,850.72
2022-09-13T12:05:55.547Z,811.25
2022-09-13T12:08:24.586Z,833.13
2022-09-13T12:10:51.733Z,932.65
2022-09-13T12:13:29.047Z,953.25
2022-09-13T12:16:07.036Z,855.63
2022-09-13T12:18:37.423Z,878.80
2022-09-13T12:21:09.279Z,740.22
2022-09-13T12:24:22.006Z,732.55
2022-09-13T12:26:55.328Z,787.88
2022-09-13T12:29:32.807Z,746.67
2022-09-13T12:32:02.810Z,769.60
2022-09-13T12:34:42.162Z,749.42
2022-09-13T12:37:10.034Z,760.53
2022-09-13T12:40:14.564Z,748.97
2022-09-13T12:42:52.636Z,758.83
2022-09-13T12:45:41.830Z,755.55
2022-09-13T12:48:25.769Z,776.97
2022-09-13T12:51:05.209Z,767.72
2022-09-13T12:53:57.943Z,590.30
2022-09-13T12:56:31.320Z,601.20
2022-09-13T12:59:29.191Z,651.03
2022-09-13T13:01:58.228Z,742.90
2022-09-13T13:04:34.027Z,744.95
2022-09-13T13:07:03.012Z,623.97
2022-09-13T13:09:36.300Z,628.40
2022-09-13T13:12:04.211Z,683.08
2022-09-13T13:14:31.323Z,728.80
2022-09-13T13:17:36.611Z,740.63
2022-09-13T13:20:41.750Z,765.65
2022-09-13T13:23:25.238Z,740.00
2022-09-13T13:26:33.638Z,629.28
2022-09-13T13:29:03.564Z,710.23
2022-09-13T13:31:30.678Z,741.83
2022-09-13T13:34:14.754Z,731.55
2022-09-13T13:36:41.365Z,695.50
2022-09-13T13:39:11.442Z,702.25
2022-09-13T13:41:40.485Z,770.75
2022-09-13T13:44:20.227Z,756.45
2022-09-13T13:46:49.671Z,780.50
2022-09-13T13:49:44.125Z,777.10
2022-09-13T13:52:11.731Z,744.15
2022-09-13T13:54:59.222Z,732.03
2022-09-13T13:57:29.371Z,755.00
2022-09-13T14:00:06.799Z,711.15
2022-09-13T14:03:02.028Z,750.88
2022-09-13T14:05:32.378Z,707.80
2022-09-13T14:11:07.274Z,640.90
2022-09-13T14:13:47.764Z,693.47
2022-09-13T14:16:33.092Z,650.00
2022-09-13T14:19:31.198Z,654.05
2022-09-13T14:22:16.579Z,742.92
2022-09-13T14:24:48.769Z,823.33
2022-09-13T14:27:19.839Z,910.53
2022-09-13T14:29:49.756Z,876.45
2022-09-13T14:32:19.002Z,870.70
2022-09-13T14:35:01.171Z,917.58
2022-09-13T14:37:32.701Z,875.83
2022-09-13T14:40:07.907Z,839.63
2022-09-13T14:42:55.816Z,611.70
2022-09-13T14:45:29.257Z,666.25
2022-09-13T14:47:56.443Z,789.13
2022-09-13T14:50:28.514Z,770.17
2022-09-13T14:52:59.877Z,728.42
2022-09-13T14:55:35.692Z,772.22
2022-09-13T14:58:08.267Z,816.00
2022-09-13T15:00:44.893Z,880.75
2022-09-13T15:03:15.888Z,794.00
2022-09-13T15:05:43.266Z,872.90
2022-09-13T15:08:34.861Z,912.37
2022-09-13T15:11:06.355Z,842.72
2022-09-13T15:13:34.885Z,950.17
2022-09-13T15:16:02.729Z,913.22
2022-09-13T15:18:36.766Z,847.93
2022-09-13T15:21:06.318Z,919.22
2022-09-13T15:23:43.038Z,933.92
2022-09-13T15:26:12.056Z,892.97
2022-09-13T15:28:42.222Z,898.28
2022-09-13T15:31:09.924Z,890.03
2022-09-13T15:33:37.315Z,767.30
2022-09-13T15:36:19.686Z,789.47
2022-09-13T15:38:58.792Z,734.20
2022-09-13T15:41:29.368Z,722.95
2022-09-13T15:43:56.913Z,755.53
2022-09-13T15:46:24.157Z,724.97
2022-09-13T15:48:54.124Z,708.23
2022-09-13T15:51:22.994Z,693.40
2022-09-13T15:53:50.261Z,681.60
2022-09-13T15:56:32.762Z,508.83
2022-09-13T15:59:00.026Z,511.48
2022-09-13T16:01:27.615Z,515.55
2022-09-13T16:03:54.831Z,495.20
2022-09-13T16:06:24.696Z,522.38
2022-09-13T16:08:52.103Z,520.13
2022-09-13T16:11:19.267Z,509.33
2022-09-13T16:13:46.403Z,507.17
2022-09-13T16:16:16.783Z,472.98
2022-09-13T16:18:44.069Z,530.47
2022-09-13T16:21:11.306Z,543.57
2022-09-13T16:23:38.522Z,546.05
2022-09-13T16:26:06.202Z,571.13
2022-09-13T16:28:33.444Z,549.85
2022-09-13T16:31:00.604Z,536.10
2022-09-13T16:33:27.911Z,565.10
2022-09-13T16:35:58.027Z,561.60
2022-09-13T16:38:28.771Z,582.30
2022-09-13T16:40:55.905Z,570.50
2022-09-13T16:43:23.273Z,473.77
2022-09-13T16:45:51.393Z,505.42
2022-09-13T16:48:18.515Z,509.15
2022-09-13T16:50:45.670Z,527.53
2022-09-13T16:53:12.847Z,533.58
2022-09-13T16:55:39.651Z,571.45
2022-09-13T16:58:06.850Z,531.17
2022-09-13T17:00:33.991Z,505.30
2022-09-13T17:03:01.390Z,530.28
2022-09-13T17:05:28.681Z,533.95
2022-09-13T17:07:55.737Z,552.35
2022-09-13T17:10:22.886Z,560.80
2022-09-13T17:12:50.252Z,590.70
2022-09-13T17:15:18.065Z,570.50
2022-09-13T17:17:45.247Z,619.45
2022-09-13T17:20:13.282Z,594.25
2022-09-13T17:22:41.639Z,597.45
2022-09-13T17:25:09.310Z,593.97
2022-09-13T17:27:36.606Z,641.77
2022-09-13T17:30:05.115Z,607.30
2022-09-13T17:32:32.307Z,626.00
2022-09-13T17:34:59.492Z,612.58
2022-09-13T17:37:26.837Z,610.80
2022-09-13T17:39:54.129Z,668.72
2022-09-13T17:42:23.366Z,653.00
2022-09-13T17:44:50.971Z,658.00
2022-09-13T17:47:18.244Z,644.40
2022-09-13T17:49:46.561Z,629.42
2022-09-13T17:52:14.054Z,627.65
2022-09-13T17:54:43.227Z,659.30
2022-09-13T17:57:11.814Z,673.28
2022-09-13T17:59:39.015Z,660.30
2022-09-13T18:02:06.312Z,647.67
2022-09-13T18:04:33.595Z,647.60
2022-09-13T18:07:00.729Z,631.63
2022-09-13T18:09:28.004Z,658.88
2022-09-13T18:11:55.192Z,629.00
2022-09-13T18:14:23.651Z,633.03
2022-09-13T18:16:55.613Z,640.63
2022-09-13T18:19:44.435Z,622.08
2022-09-13T18:22:10.855Z,633.88
2022-09-13T18:24:37.996Z,616.83
2022-09-13T18:27:05.467Z,648.22
2022-09-13T18:29:32.968Z,650.47
2022-09-13T18:32:00.251Z,643.83
2022-09-13T18:34:27.935Z,635.92
2022-09-13T18:36:55.343Z,653.80
2022-09-13T18:39:23.071Z,651.35
2022-09-13T18:41:50.239Z,676.10
2022-09-13T18:44:19.649Z,675.83
2022-09-13T18:46:47.305Z,647.13
2022-09-13T18:49:15.049Z,671.05
2022-09-13T18:51:43.831Z,626.72
2022-09-13T18:54:15.979Z,630.40
2022-09-13T18:56:43.326Z,626.80
2022-09-13T18:59:10.993Z,589.08
2022-09-13T19:01:39.598Z,573.33
2022-09-13T19:04:08.442Z,576.28
2022-09-13T19:06:37.210Z,605.78
2022-09-13T19:09:05.088Z,598.45
2022-09-13T19:11:46.859Z,621.47
2022-09-13T19:14:16.317Z,613.58
2022-09-13T19:16:43.538Z,608.95
2022-09-13T19:19:10.719Z,603.75
2022-09-13T19:21:37.869Z,617.38
2022-09-13T19:24:10.078Z,626.60
2022-09-13T19:26:39.067Z,715.85
2022-09-13T19:29:08.698Z,771.27
2022-09-13T19:31:41.427Z,669.07
2022-09-13T19:34:08.711Z,643.67
2022-09-13T19:36:36.761Z,666.40
2022-09-13T19:39:05.035Z,683.15
2022-09-13T19:41:32.759Z,683.40
2022-09-13T19:44:01.457Z,674.10
2022-09-13T19:46:31.503Z,658.60
2022-09-13T19:49:00.944Z,660.63
2022-09-13T19:51:28.186Z,653.97
2022-09-13T19:53:57.744Z,657.00
2022-09-13T19:56:30.675Z,562.22
2022-09-13T19:58:58.498Z,536.60
2022-09-13T20:01:27.982Z,528.00
2022-09-13T20:03:56.845Z,554.88
2022-09-13T20:06:24.982Z,577.97
2022-09-13T20:08:52.994Z,534.47
2022-09-13T20:11:21.019Z,545.85
2022-09-13T20:13:48.927Z,538.28
2022-09-13T20:16:18.993Z,524.63
2022-09-13T20:18:46.547Z,532.95
2022-09-13T20:21:15.316Z,490.48
2022-09-13T20:23:44.258Z,430.50
2022-09-13T20:26:18.702Z,461.35
2022-09-13T20:28:47.189Z,458.90
2022-09-13T20:31:15.260Z,428.73
2022-09-13T20:33:42.760Z,439.90
2022-09-13T20:36:13.362Z,410.17
2022-09-13T20:38:41.496Z,436.73
2022-09-13T20:41:11.444Z,515.10
2022-09-13T20:43:38.618Z,527.00
2022-09-13T20:46:05.764Z,515.78
2022-09-13T20:48:34.403Z,501.17
2022-09-13T20:51:03.575Z,471.15
2022-09-13T20:53:30.978Z,490.97
2022-09-13T20:56:06.864Z,468.52
2022-09-13T20:58:33.744Z,465.60
2022-09-13T21:01:06.686Z,470.17
2022-09-13T21:03:37.761Z,491.98
2022-09-13T21:06:05.646Z,481.77
2022-09-13T21:08:41.648Z,478.85
2022-09-13T21:11:09.683Z,406.87
2022-09-13T21:13:38.414Z,379.67
2022-09-13T21:16:15.124Z,390.67
2022-09-13T21:18:42.966Z,394.05
2022-09-13T21:21:14.969Z,387.17
2022-09-13T21:23:42.503Z,398.55
2022-09-13T21:26:11.002Z,400.38
2022-09-13T21:28:39.575Z,396.50
2022-09-13T21:31:20.747Z,392.05
2022-09-13T21:33:48.770Z,396.42
2022-09-13T21:36:16.121Z,393.75
2022-09-13T21:38:43.459Z,407.35
2022-09-13T21:41:12.924Z,406.55
2022-09-13T21:43:40.480Z,405.20
2022-09-13T21:46:16.880Z,411.67
2022-09-13T21:48:46.328Z,423.08
2022-09-13T21:51:22.389Z,380.45
2022-09-13T21:53:58.195Z,421.65
2022-09-13T21:56:26.907Z,400.10
2022-09-13T21:59:00.193Z,386.52
2022-09-13T22:01:29.439Z,375.45
2022-09-13T22:03:56.778Z,390.73
2022-09-13T22:06:24.387Z,389.52
2022-09-13T22:08:53.792Z,402.17
2022-09-13T22:11:25.834Z,405.50
2022-09-13T22:13:53.664Z,401.15
2022-09-13T22:16:21.915Z,401.63
2022-09-13T22:18:57.501Z,381.00
2022-09-13T22:21:27.204Z,373.73
2022-09-13T22:23:54.344Z,338.90
2022-09-13T22:26:23.392Z,403.05
2022-09-13T22:28:50.975Z,395.17
2022-09-13T22:31:19.973Z,383.67
2022-09-13T22:33:47.668Z,385.95
2022-09-13T22:36:16.526Z,390.42
2022-09-13T22:38:45.999Z,385.77
2022-09-13T22:41:21.304Z,383.23
2022-09-13T22:43:48.893Z,340.25
2022-09-13T22:46:22.230Z,298.35
2022-09-13T22:48:49.779Z,367.90
2022-09-13T22:51:17.939Z,381.23
2022-09-13T22:53:46.355Z,364.55
2022-09-13T22:56:19.679Z,378.75
2022-09-13T22:58:47.483Z,380.98
2022-09-13T23:01:17.288Z,388.95
2022-09-13T23:03:45.808Z,365.92
2022-09-13T23:06:14.052Z,380.33
2022-09-13T23:08:41.560Z,361.33
2022-09-13T23:11:18.138Z,376.23
2022-09-13T23:13:46.898Z,381.20
2022-09-13T23:16:20.013Z,381.75
2022-09-13T23:18:48.071Z,390.40
2022-09-13T23:21:18.420Z,381.95
2022-09-13T23:23:45.333Z,397.73
2022-09-13T23:26:17.678Z,385.42
2022-09-13T23:28:47.723Z,380.52
2022-09-13T23:31:15.456Z,363.17
2022-09-13T23:33:44.918Z,375.42
2022-09-13T23:36:13.075Z,361.63
2022-09-13T23:38:40.924Z,372.60
2022-09-13T23:41:10.603Z,396.90
2022-09-13T23:43:37.967Z,391.27
2022-09-13T23:46:06.255Z,420.35
2022-09-13T23:48:34.672Z,378.23
2022-09-13T23:51:03.467Z,390.13
2022-09-13T23:53:31.027Z,370.33
2022-09-13T23:55:58.143Z,382.73
2022-09-13T23:58:25.773Z,390.92
